sensor_id;sensor_type;location;lat;lon;timestamp;temperature;humidity
24518;DHT22;12678;51.336;12.406;2022-09-19T00:00:25;10.30;99.90
24518;DHT22;12678;51.336;12.406;2022-09-19T00:02:50;10.30;99.90
24518;DHT22;12678;51.336;12.406;2022-09-19T00:05:16;10.30;99.90
24518;DHT22;12678;51.336;12.406;2022-09-19T00:07:41;10.40;99.90
24518;DHT22;12678;51.336;12.406;2022-09-19T00:10:08;10.30;99.90
24518;DHT22;12678;51.336;12.406;2022-09-19T00:12:34;10.30;99.90
24518;DHT22;12678;51.336;12.406;2022-09-19T00:15:00;10.30;99.90
24518;DHT22;12678;51.336;12.406;2022-09-19T00:17:25;10.40;99.90
24518;DHT22;12678;51.336;12.406;2022-09-19T00:19:51;10.40;99.90
24518;DHT22;12678;51.336;12.406;2022-09-19T00:22:17;10.40;99.90
24518;DHT22;12678;51.336;12.406;2022-09-19T00:24:43;10.40;99.90
24518;DHT22;12678;51.336;12.406;2022-09-19T00:27:24;10.50;99.90
24518;DHT22;12678;51.336;12.406;2022-09-19T00:29:51;10.50;99.90
24518;DHT22;12678;51.336;12.406;2022-09-19T00:32:18;10.50;99.90
24518;DHT22;12678;51.336;12.406;2022-09-19T00:34:47;10.40;99.90
24518;DHT22;12678;51.336;12.406;2022-09-19T00:37:13;10.40;99.90
24518;DHT22;12678;51.336;12.406;2022-09-19T00:39:40;10.40;99.90
24518;DHT22;12678;51.336;12.406;2022-09-19T00:42:09;10.40;99.90
24518;DHT22;12678;51.336;12.406;2022-09-19T00:47:13;10.40;99.90
24518;DHT22;12678;51.336;12.406;2022-09-19T00:49:41;10.40;99.90
24518;DHT22;12678;51.336;12.406;2022-09-19T00:52:13;10.40;99.90
24518;DHT22;12678;51.336;12.406;2022-09-19T00:54:41;10.50;99.90
24518;DHT22;12678;51.336;12.406;2022-09-19T00:57:08;10.50;99.90
24518;DHT22;12678;51.336;12.406;2022-09-19T00:59:35;10.50;99.90
24518;DHT22;12678;51.336;12.406;2022-09-19T01:02:01;10.50;99.90
24518;DHT22;12678;51.336;12.406;2022-09-19T01:04:30;10.50;99.90
24518;DHT22;12678;51.336;12.406;2022-09-19T01:15:14;10.60;99.90
24518;DHT22;12678;51.336;12.406;2022-09-19T01:23:02;10.60;99.90
24518;DHT22;12678;51.336;12.406;2022-09-19T01:30:57;10.60;99.90
24518;DHT22;12678;51.336;12.406;2022-09-19T01:36:16;10.70;99.90
24518;DHT22;12678;51.336;12.406;2022-09-19T01:38:43;10.70;99.90
24518;DHT22;12678;51.336;12.406;2022-09-19T01:41:10;10.60;99.90
24518;DHT22;12678;51.336;12.406;2022-09-19T01:43:37;10.60;99.90
24518;DHT22;12678;51.336;12.406;2022-09-19T01:46:06;10.60;99.90
24518;DHT22;12678;51.336;12.406;2022-09-19T01:48:38;10.60;99.90
24518;DHT22;12678;51.336;12.406;2022-09-19T01:51:21;10.60;99.90
24518;DHT22;12678;51.336;12.406;2022-09-19T01:53:57;10.60;99.90
24518;DHT22;12678;51.336;12.406;2022-09-19T01:56:35;10.60;99.90
24518;DHT22;12678;51.336;12.406;2022-09-19T01:59:23;10.60;99.90
24518;DHT22;12678;51.336;12.406;2022-09-19T02:01:59;10.60;99.90
24518;DHT22;12678;51.336;12.406;2022-09-19T02:04:30;10.70;99.90
24518;DHT22;12678;51.336;12.406;2022-09-19T02:09:30;10.70;99.90
24518;DHT22;12678;51.336;12.406;2022-09-19T02:11:58;10.70;99.90
24518;DHT22;12678;51.336;12.406;2022-09-19T02:14:26;10.70;99.90
24518;DHT22;12678;51.336;12.406;2022-09-19T02:19:30;10.70;99.90
24518;DHT22;12678;51.336;12.406;2022-09-19T02:21:59;10.70;99.90
24518;DHT22;12678;51.336;12.406;2022-09-19T02:24:26;10.70;99.90
24518;DHT22;12678;51.336;12.406;2022-09-19T02:26:52;10.70;99.90
24518;DHT22;12678;51.336;12.406;2022-09-19T02:29:20;10.70;99.90
24518;DHT22;12678;51.336;12.406;2022-09-19T02:31:49;10.70;99.90
24518;DHT22;12678;51.336;12.406;2022-09-19T02:34:14;10.80;99.90
24518;DHT22;12678;51.336;12.406;2022-09-19T02:36:52;10.80;99.90
24518;DHT22;12678;51.336;12.406;2022-09-19T02:39:21;10.80;99.90
24518;DHT22;12678;51.336;12.406;2022-09-19T02:41:50;10.80;99.90
24518;DHT22;12678;51.336;12.406;2022-09-19T02:44:20;10.80;99.90
24518;DHT22;12678;51.336;12.406;2022-09-19T02:46:55;10.80;99.90
24518;DHT22;12678;51.336;12.406;2022-09-19T02:52:14;10.80;99.90
24518;DHT22;12678;51.336;12.406;2022-09-19T02:54:43;10.80;99.90
24518;DHT22;12678;51.336;12.406;2022-09-19T02:57:11;10.80;99.90
24518;DHT22;12678;51.336;12.406;2022-09-19T02:59:40;10.80;99.90
24518;DHT22;12678;51.336;12.406;2022-09-19T03:02:18;10.80;99.90
24518;DHT22;12678;51.336;12.406;2022-09-19T03:04:47;10.80;99.90
24518;DHT22;12678;51.336;12.406;2022-09-19T03:07:57;10.80;99.90
24518;DHT22;12678;51.336;12.406;2022-09-19T03:10:04;10.80;99.90
24518;DHT22;12678;51.336;12.406;2022-09-19T03:14:56;10.80;99.90
24518;DHT22;12678;51.336;12.406;2022-09-19T03:17:35;10.80;99.90
24518;DHT22;12678;51.336;12.406;2022-09-19T03:20:02;10.80;99.90
24518;DHT22;12678;51.336;12.406;2022-09-19T03:22:28;10.80;99.90
24518;DHT22;12678;51.336;12.406;2022-09-19T03:24:54;10.70;99.90
24518;DHT22;12678;51.336;12.406;2022-09-19T03:27:19;10.70;99.90
24518;DHT22;12678;51.336;12.406;2022-09-19T03:29:45;10.70;99.90
24518;DHT22;12678;51.336;12.406;2022-09-19T03:32:10;10.80;99.90
24518;DHT22;12678;51.336;12.406;2022-09-19T03:34:36;10.80;99.90
24518;DHT22;12678;51.336;12.406;2022-09-19T03:37:02;10.80;99.90
24518;DHT22;12678;51.336;12.406;2022-09-19T03:39:28;10.80;99.90
24518;DHT22;12678;51.336;12.406;2022-09-19T03:41:53;10.80;99.90
24518;DHT22;12678;51.336;12.406;2022-09-19T03:44:19;10.80;99.90
24518;DHT22;12678;51.336;12.406;2022-09-19T03:46:45;10.80;99.90
24518;DHT22;12678;51.336;12.406;2022-09-19T03:49:12;10.90;99.90
24518;DHT22;12678;51.336;12.406;2022-09-19T03:51:38;10.90;99.90
24518;DHT22;12678;51.336;12.406;2022-09-19T03:54:04;11.00;99.90
24518;DHT22;12678;51.336;12.406;2022-09-19T03:56:30;11.00;99.90
24518;DHT22;12678;51.336;12.406;2022-09-19T03:58:55;10.90;99.90
24518;DHT22;12678;51.336;12.406;2022-09-19T04:01:21;11.00;99.90
24518;DHT22;12678;51.336;12.406;2022-09-19T04:03:47;10.90;99.90
24518;DHT22;12678;51.336;12.406;2022-09-19T04:06:13;10.90;99.90
24518;DHT22;12678;51.336;12.406;2022-09-19T04:08:38;10.90;99.90
24518;DHT22;12678;51.336;12.406;2022-09-19T04:11:04;10.90;99.90
24518;DHT22;12678;51.336;12.406;2022-09-19T04:13:30;11.00;99.90
24518;DHT22;12678;51.336;12.406;2022-09-19T04:15:58;10.90;99.90
24518;DHT22;12678;51.336;12.406;2022-09-19T04:18:24;10.90;99.90
24518;DHT22;12678;51.336;12.406;2022-09-19T04:20:49;10.90;99.90
24518;DHT22;12678;51.336;12.406;2022-09-19T04:23:16;10.90;99.90
24518;DHT22;12678;51.336;12.406;2022-09-19T04:25:45;10.90;99.90
24518;DHT22;12678;51.336;12.406;2022-09-19T04:28:12;11.00;99.90
24518;DHT22;12678;51.336;12.406;2022-09-19T04:30:38;11.00;99.90
24518;DHT22;12678;51.336;12.406;2022-09-19T04:33:06;11.00;99.90
24518;DHT22;12678;51.336;12.406;2022-09-19T04:35:32;11.10;99.90
24518;DHT22;12678;51.336;12.406;2022-09-19T04:38:02;11.00;99.90
24518;DHT22;12678;51.336;12.406;2022-09-19T04:40:28;11.00;99.90
24518;DHT22;12678;51.336;12.406;2022-09-19T04:42:54;11.00;99.90
24518;DHT22;12678;51.336;12.406;2022-09-19T04:45:19;11.00;99.90
24518;DHT22;12678;51.336;12.406;2022-09-19T04:47:49;11.00;99.90
24518;DHT22;12678;51.336;12.406;2022-09-19T04:50:14;11.00;99.90
24518;DHT22;12678;51.336;12.406;2022-09-19T04:52:41;11.00;99.90
24518;DHT22;12678;51.336;12.406;2022-09-19T04:55:07;11.00;99.90
24518;DHT22;12678;51.336;12.406;2022-09-19T04:57:32;11.00;99.90
24518;DHT22;12678;51.336;12.406;2022-09-19T04:59:58;11.00;99.90
24518;DHT22;12678;51.336;12.406;2022-09-19T05:02:23;11.00;99.90
24518;DHT22;12678;51.336;12.406;2022-09-19T05:04:49;11.00;99.90
24518;DHT22;12678;51.336;12.406;2022-09-19T05:07:16;11.00;99.90
24518;DHT22;12678;51.336;12.406;2022-09-19T05:09:44;11.00;99.90
24518;DHT22;12678;51.336;12.406;2022-09-19T05:12:09;11.00;99.90
24518;DHT22;12678;51.336;12.406;2022-09-19T05:14:35;11.00;99.90
24518;DHT22;12678;51.336;12.406;2022-09-19T05:17:01;11.00;99.90
24518;DHT22;12678;51.336;12.406;2022-09-19T05:19:26;11.10;99.90
24518;DHT22;12678;51.336;12.406;2022-09-19T05:21:52;11.00;99.90
24518;DHT22;12678;51.336;12.406;2022-09-19T05:24:17;11.00;99.90
24518;DHT22;12678;51.336;12.406;2022-09-19T05:26:44;11.00;99.90
24518;DHT22;12678;51.336;12.406;2022-09-19T05:29:10;11.00;99.90
24518;DHT22;12678;51.336;12.406;2022-09-19T05:31:38;11.00;99.90
24518;DHT22;12678;51.336;12.406;2022-09-19T05:34:04;11.00;99.90
24518;DHT22;12678;51.336;12.406;2022-09-19T05:36:29;11.00;99.90
24518;DHT22;12678;51.336;12.406;2022-09-19T05:38:56;11.00;99.90
24518;DHT22;12678;51.336;12.406;2022-09-19T05:41:22;11.10;99.90
24518;DHT22;12678;51.336;12.406;2022-09-19T05:43:48;11.10;99.90
24518;DHT22;12678;51.336;12.406;2022-09-19T05:46:13;11.20;99.90
24518;DHT22;12678;51.336;12.406;2022-09-19T05:48:39;11.30;99.90
24518;DHT22;12678;51.336;12.406;2022-09-19T05:51:05;11.30;99.90
24518;DHT22;12678;51.336;12.406;2022-09-19T05:53:30;11.40;99.90
24518;DHT22;12678;51.336;12.406;2022-09-19T05:56:14;11.40;99.90
24518;DHT22;12678;51.336;12.406;2022-09-19T05:58:39;11.40;99.90
24518;DHT22;12678;51.336;12.406;2022-09-19T06:01:05;11.40;99.90
24518;DHT22;12678;51.336;12.406;2022-09-19T06:03:31;11.40;99.90
24518;DHT22;12678;51.336;12.406;2022-09-19T06:05:57;11.40;99.90
24518;DHT22;12678;51.336;12.406;2022-09-19T06:08:23;11.40;99.90
24518;DHT22;12678;51.336;12.406;2022-09-19T06:10:49;11.40;99.90
24518;DHT22;12678;51.336;12.406;2022-09-19T06:13:15;11.50;99.90
24518;DHT22;12678;51.336;12.406;2022-09-19T06:15:41;11.70;99.90
24518;DHT22;12678;51.336;12.406;2022-09-19T06:18:07;11.70;99.90
24518;DHT22;12678;51.336;12.406;2022-09-19T06:20:35;11.80;99.90
24518;DHT22;12678;51.336;12.406;2022-09-19T06:23:02;11.80;99.90
24518;DHT22;12678;51.336;12.406;2022-09-19T06:25:29;11.80;99.90
24518;DHT22;12678;51.336;12.406;2022-09-19T06:27:55;11.80;99.90
24518;DHT22;12678;51.336;12.406;2022-09-19T06:30:21;11.90;99.90
24518;DHT22;12678;51.336;12.406;2022-09-19T06:32:47;11.90;99.90
24518;DHT22;12678;51.336;12.406;2022-09-19T06:35:13;12.00;99.90
24518;DHT22;12678;51.336;12.406;2022-09-19T06:37:38;12.00;99.90
24518;DHT22;12678;51.336;12.406;2022-09-19T06:40:04;12.00;99.90
24518;DHT22;12678;51.336;12.406;2022-09-19T06:42:29;11.90;99.90
24518;DHT22;12678;51.336;12.406;2022-09-19T06:44:55;11.90;99.90
24518;DHT22;12678;51.336;12.406;2022-09-19T06:47:20;11.90;99.90
24518;DHT22;12678;51.336;12.406;2022-09-19T06:49:46;11.90;99.90
24518;DHT22;12678;51.336;12.406;2022-09-19T06:52:11;12.00;99.90
24518;DHT22;12678;51.336;12.406;2022-09-19T06:54:37;12.00;99.90
24518;DHT22;12678;51.336;12.406;2022-09-19T06:57:03;12.00;99.90
24518;DHT22;12678;51.336;12.406;2022-09-19T06:59:28;11.90;99.90
24518;DHT22;12678;51.336;12.406;2022-09-19T07:01:54;11.90;99.90
24518;DHT22;12678;51.336;12.406;2022-09-19T07:04:19;12.00;99.90
24518;DHT22;12678;51.336;12.406;2022-09-19T07:06:46;12.00;99.90
24518;DHT22;12678;51.336;12.406;2022-09-19T07:09:11;12.20;99.90
24518;DHT22;12678;51.336;12.406;2022-09-19T07:11:37;12.30;99.90
24518;DHT22;12678;51.336;12.406;2022-09-19T07:14:03;12.50;99.90
24518;DHT22;12678;51.336;12.406;2022-09-19T07:16:29;12.60;99.90
24518;DHT22;12678;51.336;12.406;2022-09-19T07:18:54;12.70;99.90
24518;DHT22;12678;51.336;12.406;2022-09-19T07:21:20;12.80;99.90
24518;DHT22;12678;51.336;12.406;2022-09-19T07:23:45;12.70;99.90
24518;DHT22;12678;51.336;12.406;2022-09-19T07:26:13;12.80;99.90
24518;DHT22;12678;51.336;12.406;2022-09-19T07:28:39;12.80;99.90
24518;DHT22;12678;51.336;12.406;2022-09-19T07:31:04;12.80;99.90
24518;DHT22;12678;51.336;12.406;2022-09-19T07:33:30;12.80;99.90
24518;DHT22;12678;51.336;12.406;2022-09-19T07:35:56;12.70;99.90
24518;DHT22;12678;51.336;12.406;2022-09-19T07:38:22;12.60;99.90
24518;DHT22;12678;51.336;12.406;2022-09-19T07:40:48;12.60;99.90
24518;DHT22;12678;51.336;12.406;2022-09-19T07:43:14;12.50;99.90
24518;DHT22;12678;51.336;12.406;2022-09-19T07:45:44;12.50;99.90
24518;DHT22;12678;51.336;12.406;2022-09-19T07:48:10;12.60;99.90
24518;DHT22;12678;51.336;12.406;2022-09-19T07:50:35;12.60;99.90
24518;DHT22;12678;51.336;12.406;2022-09-19T07:53:05;12.70;99.90
24518;DHT22;12678;51.336;12.406;2022-09-19T07:55:31;12.70;99.90
24518;DHT22;12678;51.336;12.406;2022-09-19T07:57:58;12.70;99.90
24518;DHT22;12678;51.336;12.406;2022-09-19T08:00:25;12.70;99.90
24518;DHT22;12678;51.336;12.406;2022-09-19T08:02:57;12.70;99.90
24518;DHT22;12678;51.336;12.406;2022-09-19T08:05:23;12.80;99.90
24518;DHT22;12678;51.336;12.406;2022-09-19T08:07:49;12.70;99.90
24518;DHT22;12678;51.336;12.406;2022-09-19T08:10:14;12.70;99.90
24518;DHT22;12678;51.336;12.406;2022-09-19T08:12:41;12.70;99.90
24518;DHT22;12678;51.336;12.406;2022-09-19T08:15:10;12.70;99.90
24518;DHT22;12678;51.336;12.406;2022-09-19T08:17:56;12.70;99.90
24518;DHT22;12678;51.336;12.406;2022-09-19T08:20:24;12.70;99.90
24518;DHT22;12678;51.336;12.406;2022-09-19T08:22:53;12.70;99.90
24518;DHT22;12678;51.336;12.406;2022-09-19T08:25:19;12.80;99.90
24518;DHT22;12678;51.336;12.406;2022-09-19T08:27:45;12.90;99.90
24518;DHT22;12678;51.336;12.406;2022-09-19T08:30:11;13.00;99.90
24518;DHT22;12678;51.336;12.406;2022-09-19T08:32:37;13.00;99.90
24518;DHT22;12678;51.336;12.406;2022-09-19T08:35:03;13.00;99.90
24518;DHT22;12678;51.336;12.406;2022-09-19T08:37:28;13.00;99.90
24518;DHT22;12678;51.336;12.406;2022-09-19T08:39:54;13.00;99.90
24518;DHT22;12678;51.336;12.406;2022-09-19T08:43:21;13.10;99.90
24518;DHT22;12678;51.336;12.406;2022-09-19T08:45:31;13.10;99.90
24518;DHT22;12678;51.336;12.406;2022-09-19T08:47:57;13.20;99.90
24518;DHT22;12678;51.336;12.406;2022-09-19T08:50:27;13.20;99.90
24518;DHT22;12678;51.336;12.406;2022-09-19T08:52:56;13.20;99.90
24518;DHT22;12678;51.336;12.406;2022-09-19T08:55:23;13.30;99.90
24518;DHT22;12678;51.336;12.406;2022-09-19T08:57:56;13.40;99.90
24518;DHT22;12678;51.336;12.406;2022-09-19T09:00:23;13.50;99.90
24518;DHT22;12678;51.336;12.406;2022-09-19T09:02:57;13.60;99.90
24518;DHT22;12678;51.336;12.406;2022-09-19T09:07:52;13.80;99.90
24518;DHT22;12678;51.336;12.406;2022-09-19T09:10:32;13.80;99.90
24518;DHT22;12678;51.336;12.406;2022-09-19T09:13:28;13.80;99.90
24518;DHT22;12678;51.336;12.406;2022-09-19T09:21:25;14.00;99.90
24518;DHT22;12678;51.336;12.406;2022-09-19T09:24:09;14.10;99.90
24518;DHT22;12678;51.336;12.406;2022-09-19T09:26:37;14.10;99.90
24518;DHT22;12678;51.336;12.406;2022-09-19T09:31:41;14.20;99.90
24518;DHT22;12678;51.336;12.406;2022-09-19T09:34:26;14.20;99.90
24518;DHT22;12678;51.336;12.406;2022-09-19T09:39:22;14.30;99.90
24518;DHT22;12678;51.336;12.406;2022-09-19T09:42:07;14.10;99.90
24518;DHT22;12678;51.336;12.406;2022-09-19T09:44:37;14.10;99.90
24518;DHT22;12678;51.336;12.406;2022-09-19T09:47:26;14.10;99.90
24518;DHT22;12678;51.336;12.406;2022-09-19T09:49:52;14.00;99.90
24518;DHT22;12678;51.336;12.406;2022-09-19T10:00:25;13.80;99.90
24518;DHT22;12678;51.336;12.406;2022-09-19T10:05:58;13.50;99.90
24518;DHT22;12678;51.336;12.406;2022-09-19T10:08:26;13.50;99.90
24518;DHT22;12678;51.336;12.406;2022-09-19T10:13:40;13.30;99.90
24518;DHT22;12678;51.336;12.406;2022-09-19T10:16:09;13.30;99.90
24518;DHT22;12678;51.336;12.406;2022-09-19T10:18:45;13.40;99.90
24518;DHT22;12678;51.336;12.406;2022-09-19T10:21:11;13.60;99.90
24518;DHT22;12678;51.336;12.406;2022-09-19T10:23:39;14.10;99.90
24518;DHT22;12678;51.336;12.406;2022-09-19T10:28:42;14.40;99.90
24518;DHT22;12678;51.336;12.406;2022-09-19T10:31:19;14.70;99.90
24518;DHT22;12678;51.336;12.406;2022-09-19T10:33:49;14.80;99.90
24518;DHT22;12678;51.336;12.406;2022-09-19T10:36:24;14.90;99.90
24518;DHT22;12678;51.336;12.406;2022-09-19T10:38:58;15.10;99.90
24518;DHT22;12678;51.336;12.406;2022-09-19T10:41:25;15.10;99.90
24518;DHT22;12678;51.336;12.406;2022-09-19T10:43:52;15.10;99.90
24518;DHT22;12678;51.336;12.406;2022-09-19T10:46:25;15.20;99.90
24518;DHT22;12678;51.336;12.406;2022-09-19T10:48:57;15.30;99.90
24518;DHT22;12678;51.336;12.406;2022-09-19T10:51:25;15.30;99.90
24518;DHT22;12678;51.336;12.406;2022-09-19T10:53:54;15.40;99.90
24518;DHT22;12678;51.336;12.406;2022-09-19T10:58:48;15.40;99.90
24518;DHT22;12678;51.336;12.406;2022-09-19T11:01:19;15.50;99.90
24518;DHT22;12678;51.336;12.406;2022-09-19T11:14:36;16.20;99.90
24518;DHT22;12678;51.336;12.406;2022-09-19T11:17:15;16.30;99.90
24518;DHT22;12678;51.336;12.406;2022-09-19T11:25:14;16.30;99.90
24518;DHT22;12678;51.336;12.406;2022-09-19T11:27:49;16.30;99.90
24518;DHT22;12678;51.336;12.406;2022-09-19T11:30:16;16.20;99.90
24518;DHT22;12678;51.336;12.406;2022-09-19T11:32:50;16.20;99.90
24518;DHT22;12678;51.336;12.406;2022-09-19T11:35:23;16.30;99.90
24518;DHT22;12678;51.336;12.406;2022-09-19T11:45:26;16.30;99.90
24518;DHT22;12678;51.336;12.406;2022-09-19T11:58:45;16.60;99.90
24518;DHT22;12678;51.336;12.406;2022-09-19T12:09:21;16.40;99.90
24518;DHT22;12678;51.336;12.406;2022-09-19T12:11:58;16.30;99.90
24518;DHT22;12678;51.336;12.406;2022-09-19T12:14:28;16.30;99.90
24518;DHT22;12678;51.336;12.406;2022-09-19T12:16:58;16.30;99.90
24518;DHT22;12678;51.336;12.406;2022-09-19T12:19:29;16.30;99.90
24518;DHT22;12678;51.336;12.406;2022-09-19T12:22:09;16.40;99.90
24518;DHT22;12678;51.336;12.406;2022-09-19T12:24:40;16.50;99.90
24518;DHT22;12678;51.336;12.406;2022-09-19T12:27:23;16.60;99.90
24518;DHT22;12678;51.336;12.406;2022-09-19T12:30:03;16.50;99.90
24518;DHT22;12678;51.336;12.406;2022-09-19T12:32:34;16.60;99.90
24518;DHT22;12678;51.336;12.406;2022-09-19T12:35:23;16.60;99.90
24518;DHT22;12678;51.336;12.406;2022-09-19T12:40:25;16.60;99.90
24518;DHT22;12678;51.336;12.406;2022-09-19T12:43:15;16.60;99.90
24518;DHT22;12678;51.336;12.406;2022-09-19T12:45:43;16.60;99.90
24518;DHT22;12678;51.336;12.406;2022-09-19T12:50:55;16.30;99.90
24518;DHT22;12678;51.336;12.406;2022-09-19T12:53:32;16.30;99.90
24518;DHT22;12678;51.336;12.406;2022-09-19T12:56:04;16.40;99.90
24518;DHT22;12678;51.336;12.406;2022-09-19T12:58:31;16.40;99.90
24518;DHT22;12678;51.336;12.406;2022-09-19T13:01:02;16.40;99.90
24518;DHT22;12678;51.336;12.406;2022-09-19T13:03:35;16.60;99.90
24518;DHT22;12678;51.336;12.406;2022-09-19T13:06:07;16.70;99.90
24518;DHT22;12678;51.336;12.406;2022-09-19T13:08:41;16.60;99.90
24518;DHT22;12678;51.336;12.406;2022-09-19T13:11:11;16.50;99.90
24518;DHT22;12678;51.336;12.406;2022-09-19T13:13:43;16.60;99.90
24518;DHT22;12678;51.336;12.406;2022-09-19T13:16:13;16.50;99.90
24518;DHT22;12678;51.336;12.406;2022-09-19T13:18:49;16.60;99.90
24518;DHT22;12678;51.336;12.406;2022-09-19T13:21:47;16.60;99.90
24518;DHT22;12678;51.336;12.406;2022-09-19T13:25:04;16.40;99.90
24518;DHT22;12678;51.336;12.406;2022-09-19T13:27:24;16.30;99.90
24518;DHT22;12678;51.336;12.406;2022-09-19T13:29:50;16.30;99.90
24518;DHT22;12678;51.336;12.406;2022-09-19T13:42:50;16.10;99.90
24518;DHT22;12678;51.336;12.406;2022-09-19T13:48:00;16.00;99.90
24518;DHT22;12678;51.336;12.406;2022-09-19T13:50:31;16.10;99.90
24518;DHT22;12678;51.336;12.406;2022-09-19T13:53:01;16.10;99.90
24518;DHT22;12678;51.336;12.406;2022-09-19T13:55:37;16.10;99.90
24518;DHT22;12678;51.336;12.406;2022-09-19T14:01:04;16.10;99.90
24518;DHT22;12678;51.336;12.406;2022-09-19T14:03:31;16.20;99.90
24518;DHT22;12678;51.336;12.406;2022-09-19T14:06:13;16.10;99.90
24518;DHT22;12678;51.336;12.406;2022-09-19T14:08:44;16.20;99.90
24518;DHT22;12678;51.336;12.406;2022-09-19T14:11:10;16.30;99.90
24518;DHT22;12678;51.336;12.406;2022-09-19T14:13:37;16.40;99.90
24518;DHT22;12678;51.336;12.406;2022-09-19T14:16:04;16.40;99.90
24518;DHT22;12678;51.336;12.406;2022-09-19T14:21:02;16.50;99.90
24518;DHT22;12678;51.336;12.406;2022-09-19T14:23:29;16.60;99.90
24518;DHT22;12678;51.336;12.406;2022-09-19T14:28:38;16.70;99.90
24518;DHT22;12678;51.336;12.406;2022-09-19T14:36:30;16.90;99.90
24518;DHT22;12678;51.336;12.406;2022-09-19T14:41:40;16.80;99.90
24518;DHT22;12678;51.336;12.406;2022-09-19T14:46:40;16.60;99.90
24518;DHT22;12678;51.336;12.406;2022-09-19T14:51:36;16.40;99.90
24518;DHT22;12678;51.336;12.406;2022-09-19T14:56:29;16.20;99.90
24518;DHT22;12678;51.336;12.406;2022-09-19T14:58:54;16.10;99.90
24518;DHT22;12678;51.336;12.406;2022-09-19T15:01:24;16.00;99.90
24518;DHT22;12678;51.336;12.406;2022-09-19T15:06:35;16.00;99.90
24518;DHT22;12678;51.336;12.406;2022-09-19T15:11:52;15.80;99.90
24518;DHT22;12678;51.336;12.406;2022-09-19T15:14:20;15.60;99.90
24518;DHT22;12678;51.336;12.406;2022-09-19T15:16:47;15.50;99.90
24518;DHT22;12678;51.336;12.406;2022-09-19T15:19:15;15.40;99.90
24518;DHT22;12678;51.336;12.406;2022-09-19T15:21:41;15.30;99.90
24518;DHT22;12678;51.336;12.406;2022-09-19T15:24:08;15.10;99.90
24518;DHT22;12678;51.336;12.406;2022-09-19T15:26:44;15.00;99.90
24518;DHT22;12678;51.336;12.406;2022-09-19T15:29:23;14.90;99.90
24518;DHT22;12678;51.336;12.406;2022-09-19T15:34:51;14.90;99.90
24518;DHT22;12678;51.336;12.406;2022-09-19T15:37:18;14.90;99.90
24518;DHT22;12678;51.336;12.406;2022-09-19T15:39:45;14.80;99.90
24518;DHT22;12678;51.336;12.406;2022-09-19T15:42:11;14.70;99.90
24518;DHT22;12678;51.336;12.406;2022-09-19T15:44:36;14.50;99.90
24518;DHT22;12678;51.336;12.406;2022-09-19T15:47:05;14.30;99.90
24518;DHT22;12678;51.336;12.406;2022-09-19T15:49:35;14.20;99.90
24518;DHT22;12678;51.336;12.406;2022-09-19T15:54:28;13.90;99.90
24518;DHT22;12678;51.336;12.406;2022-09-19T15:56:56;13.50;99.90
24518;DHT22;12678;51.336;12.406;2022-09-19T15:59:27;13.40;99.90
24518;DHT22;12678;51.336;12.406;2022-09-19T16:01:56;13.30;99.90
24518;DHT22;12678;51.336;12.406;2022-09-19T16:04:25;13.20;99.90
24518;DHT22;12678;51.336;12.406;2022-09-19T16:09:46;13.00;99.90
24518;DHT22;12678;51.336;12.406;2022-09-19T16:12:38;12.90;99.90
24518;DHT22;12678;51.336;12.406;2022-09-19T16:15:08;12.70;99.90
24518;DHT22;12678;51.336;12.406;2022-09-19T16:23:00;12.50;99.90
24518;DHT22;12678;51.336;12.406;2022-09-19T16:25:27;12.50;99.90
24518;DHT22;12678;51.336;12.406;2022-09-19T16:27:53;12.50;99.90
24518;DHT22;12678;51.336;12.406;2022-09-19T16:30:18;12.40;99.90
24518;DHT22;12678;51.336;12.406;2022-09-19T16:32:44;12.40;99.90
24518;DHT22;12678;51.336;12.406;2022-09-19T16:35:13;12.40;99.90
24518;DHT22;12678;51.336;12.406;2022-09-19T16:37:40;12.40;99.90
24518;DHT22;12678;51.336;12.406;2022-09-19T16:40:07;12.50;99.90
24518;DHT22;12678;51.336;12.406;2022-09-19T16:42:44;12.50;99.90
24518;DHT22;12678;51.336;12.406;2022-09-19T16:47:39;12.40;99.90
24518;DHT22;12678;51.336;12.406;2022-09-19T16:50:04;12.40;99.90
24518;DHT22;12678;51.336;12.406;2022-09-19T16:52:31;12.40;99.90
24518;DHT22;12678;51.336;12.406;2022-09-19T16:54:58;12.40;99.90
24518;DHT22;12678;51.336;12.406;2022-09-19T16:57:24;12.50;99.90
24518;DHT22;12678;51.336;12.406;2022-09-19T16:59:51;12.50;99.90
24518;DHT22;12678;51.336;12.406;2022-09-19T17:02:30;12.40;99.90
24518;DHT22;12678;51.336;12.406;2022-09-19T17:04:57;12.50;99.90
24518;DHT22;12678;51.336;12.406;2022-09-19T17:07:23;12.50;99.90
24518;DHT22;12678;51.336;12.406;2022-09-19T17:09:48;12.40;99.90
24518;DHT22;12678;51.336;12.406;2022-09-19T17:12:15;12.50;99.90
24518;DHT22;12678;51.336;12.406;2022-09-19T17:14:41;12.50;99.90
24518;DHT22;12678;51.336;12.406;2022-09-19T17:17:07;12.50;99.90
24518;DHT22;12678;51.336;12.406;2022-09-19T17:19:34;12.40;99.90
24518;DHT22;12678;51.336;12.406;2022-09-19T17:22:00;12.40;99.90
24518;DHT22;12678;51.336;12.406;2022-09-19T17:24:25;12.40;99.90
24518;DHT22;12678;51.336;12.406;2022-09-19T17:26:52;12.40;99.90
24518;DHT22;12678;51.336;12.406;2022-09-19T17:29:18;12.40;99.90
24518;DHT22;12678;51.336;12.406;2022-09-19T17:31:43;12.30;99.90
24518;DHT22;12678;51.336;12.406;2022-09-19T17:34:09;12.30;99.90
24518;DHT22;12678;51.336;12.406;2022-09-19T17:36:35;12.20;99.90
24518;DHT22;12678;51.336;12.406;2022-09-19T17:39:01;12.20;99.90
24518;DHT22;12678;51.336;12.406;2022-09-19T17:41:29;12.10;99.90
24518;DHT22;12678;51.336;12.406;2022-09-19T17:43:55;12.10;99.90
24518;DHT22;12678;51.336;12.406;2022-09-19T17:46:21;12.10;99.90
24518;DHT22;12678;51.336;12.406;2022-09-19T17:48:50;12.10;99.90
24518;DHT22;12678;51.336;12.406;2022-09-19T17:51:16;12.00;99.90
24518;DHT22;12678;51.336;12.406;2022-09-19T17:53:42;12.10;99.90
24518;DHT22;12678;51.336;12.406;2022-09-19T17:56:18;12.10;99.90
24518;DHT22;12678;51.336;12.406;2022-09-19T17:58:44;12.10;99.90
24518;DHT22;12678;51.336;12.406;2022-09-19T18:01:17;12.10;99.90
24518;DHT22;12678;51.336;12.406;2022-09-19T18:04:12;12.00;99.90
24518;DHT22;12678;51.336;12.406;2022-09-19T18:06:38;12.10;99.90
24518;DHT22;12678;51.336;12.406;2022-09-19T18:09:05;12.00;99.90
24518;DHT22;12678;51.336;12.406;2022-09-19T18:11:31;12.00;99.90
24518;DHT22;12678;51.336;12.406;2022-09-19T18:13:58;12.00;99.90
24518;DHT22;12678;51.336;12.406;2022-09-19T18:16:27;12.00;99.90
24518;DHT22;12678;51.336;12.406;2022-09-19T18:18:53;12.10;99.90